Time;durP1;ratioP1;P1;durP2;ratioP2;P2;SDS_P1;SDS_P2;PMS_P1;PMS_P2;Temp;Humidity;BMP_temperature;BMP_pressure;BME280_temperature;BME280_humidity;BME280_pressure;Samples;Min_cycle;Max_cycle;Signal;HPM_P1;HPM_P2
2021/10/21 00:02:13;;;;;;;3.97;3.35;;;16.70;99.90;;;;;;6185510;23;20072;-71
2021/10/21 00:04:40;;;;;;;3.90;3.55;;;16.70;99.90;;;;;;6185017;23;20105;-69
2021/10/21 00:07:07;;;;;;;3.35;3.05;;;16.60;99.90;;;;;;6185536;23;20024;-70
2021/10/21 00:09:33;;;;;;;4.35;3.70;;;16.70;99.90;;;;;;6184798;23;20452;-72
2021/10/21 00:12:03;;;;;;;4.15;3.67;;;16.60;99.90;;;;;;6185632;23;20024;-71
2021/10/21 00:14:29;;;;;;;3.92;3.63;;;16.60;99.90;;;;;;6184902;23;20078;-72
2021/10/21 00:16:56;;;;;;;4.28;3.88;;;16.60;99.90;;;;;;6185564;23;20163;-72
2021/10/21 00:19:22;;;;;;;6.22;4.00;;;16.60;99.90;;;;;;6185365;23;20025;-73
2021/10/21 00:21:49;;;;;;;3.28;2.97;;;16.50;99.90;;;;;;6185412;23;20080;-72
2021/10/21 00:24:17;;;;;;;4.50;3.58;;;16.50;99.90;;;;;;6185169;23;20075;-71
2021/10/21 00:26:43;;;;;;;6.60;4.00;;;16.50;99.90;;;;;;6185316;23;20036;-69
2021/10/21 00:29:11;;;;;;;3.53;3.22;;;16.50;99.90;;;;;;6184909;23;20067;-71
2021/10/21 00:31:38;;;;;;;4.05;3.72;;;16.50;99.90;;;;;;6185408;23;20079;-70
2021/10/21 00:34:05;;;;;;;7.15;3.65;;;16.50;99.90;;;;;;6184500;23;20471;-72
2021/10/21 00:36:31;;;;;;;4.10;3.70;;;16.50;99.90;;;;;;6184824;23;20455;-74
2021/10/21 00:38:58;;;;;;;4.20;3.33;;;16.50;99.90;;;;;;6185251;23;20087;-74
2021/10/21 00:41:25;;;;;;;5.25;3.90;;;16.50;99.90;;;;;;6185081;23;20076;-72
2021/10/21 00:44:05;;;;;;;3.63;3.33;;;16.40;99.90;;;;;;6184614;23;20068;-71
2021/10/21 00:46:33;;;;;;;3.42;3.13;;;16.50;99.90;;;;;;6185112;23;20409;-71
2021/10/21 00:49:00;;;;;;;3.75;2.95;;;16.40;99.90;;;;;;6184923;23;20025;-73
2021/10/21 00:51:26;;;;;;;3.28;2.97;;;16.40;99.90;;;;;;6185068;23;20049;-71
2021/10/21 00:53:53;;;;;;;3.42;3.10;;;16.40;99.90;;;;;;6184463;23;20025;-71
2021/10/21 00:56:20;;;;;;;3.35;3.05;;;16.30;99.90;;;;;;6185190;23;20021;-70
2021/10/21 00:58:49;;;;;;;3.78;3.42;;;16.40;99.90;;;;;;6185004;23;20048;-71
2021/10/21 01:01:16;;;;;;;3.72;3.20;;;16.40;99.90;;;;;;6185172;23;20020;-71
2021/10/21 01:03:44;;;;;;;3.70;3.13;;;16.40;99.90;;;;;;6182284;23;20398;-71
2021/10/21 01:06:12;;;;;;;4.10;3.72;;;16.40;99.90;;;;;;6184966;23;20021;-72
2021/10/21 01:08:39;;;;;;;5.53;3.35;;;16.40;99.90;;;;;;6184565;23;20021;-70
2021/10/21 01:11:07;;;;;;;3.60;3.30;;;16.50;99.90;;;;;;6184899;23;20025;-71
2021/10/21 01:13:34;;;;;;;3.72;3.33;;;16.40;99.90;;;;;;6184306;23;20021;-70
2021/10/21 01:16:04;;;;;;;3.85;3.35;;;16.40;99.90;;;;;;6184906;23;20324;-70
2021/10/21 01:18:31;;;;;;;4.40;3.40;;;16.40;99.90;;;;;;6184780;23;20021;-70
2021/10/21 01:21:00;;;;;;;5.20;3.38;;;16.40;99.90;;;;;;6184330;23;20075;-70
2021/10/21 01:23:27;;;;;;;4.78;4.25;;;16.40;99.90;;;;;;6184010;23;20537;-69
2021/10/21 01:25:53;;;;;;;4.10;3.67;;;16.40;99.90;;;;;;6184803;23;20020;-71
2021/10/21 01:28:20;;;;;;;4.07;3.67;;;16.40;99.90;;;;;;6184911;23;20379;-70
2021/10/21 01:30:47;;;;;;;3.88;3.42;;;16.40;99.90;;;;;;6184672;23;20072;-70
2021/10/21 01:33:14;;;;;;;4.05;3.65;;;16.50;99.90;;;;;;6184193;23;20017;-72
2021/10/21 01:35:41;;;;;;;4.22;3.92;;;16.50;99.90;;;;;;6184617;23;20025;-70
2021/10/21 01:38:10;;;;;;;6.20;4.10;;;16.40;99.90;;;;;;6184780;23;20391;-70
2021/10/21 01:40:36;;;;;;;3.50;3.20;;;16.50;99.90;;;;;;6184654;23;20076;-69
2021/10/21 01:43:04;;;;;;;3.63;3.15;;;16.40;99.90;;;;;;6184959;23;20031;-69
2021/10/21 01:45:32;;;;;;;8.30;3.58;;;16.50;99.90;;;;;;6184424;23;20096;-69
2021/10/21 01:48:01;;;;;;;4.40;3.63;;;16.50;99.90;;;;;;6184523;23;20017;-71
2021/10/21 01:50:29;;;;;;;4.65;3.40;;;16.50;99.90;;;;;;6184365;23;20021;-72
2021/10/21 01:52:55;;;;;;;4.28;3.80;;;16.50;99.90;;;;;;6183977;23;20076;-73
2021/10/21 01:55:24;;;;;;;3.25;2.95;;;16.50;99.90;;;;;;6184003;23;20021;-72
2021/10/21 01:57:51;;;;;;;3.67;2.67;;;16.60;99.90;;;;;;6184522;23;20079;-72
2021/10/21 02:00:20;;;;;;;2.83;2.38;;;16.50;99.90;;;;;;6184309;23;20021;-71
2021/10/21 02:02:47;;;;;;;3.97;2.75;;;16.60;99.90;;;;;;6184652;23;20052;-72
2021/10/21 02:05:15;;;;;;;3.85;2.83;;;16.80;99.90;;;;;;6183791;23;20025;-72
2021/10/21 02:07:42;;;;;;;2.65;2.42;;;16.80;99.90;;;;;;6184274;23;20021;-72
2021/10/21 02:10:10;;;;;;;2.28;2.05;;;16.90;99.90;;;;;;6184438;23;20024;-72
2021/10/21 02:12:39;;;;;;;3.65;2.63;;;16.80;99.90;;;;;;6184349;23;20021;-71
2021/10/21 02:15:07;;;;;;;3.75;2.78;;;16.80;99.90;;;;;;6183726;23;20017;-71
2021/10/21 02:17:33;;;;;;;2.50;2.30;;;16.90;99.90;;;;;;6184354;23;20053;-72
2021/10/21 02:20:00;;;;;;;3.42;2.30;;;16.80;99.90;;;;;;6184269;23;20071;-69
2021/10/21 02:22:27;;;;;;;3.67;2.33;;;16.90;99.90;;;;;;6184357;23;20080;-69
2021/10/21 02:24:54;;;;;;;2.25;2.03;;;16.90;99.90;;;;;;6183753;23;20028;-69
2021/10/21 02:27:21;;;;;;;2.60;2.40;;;16.90;99.90;;;;;;6184291;23;20021;-71
2021/10/21 02:29:49;;;;;;;1.95;1.67;;;16.90;99.90;;;;;;6184074;23;20071;-71
2021/10/21 02:32:16;;;;;;;2.30;1.67;;;16.90;99.90;;;;;;6184111;23;20068;-70
2021/10/21 02:34:43;;;;;;;2.28;1.90;;;16.90;99.90;;;;;;6183485;23;20025;-70
2021/10/21 02:37:09;;;;;;;2.30;1.92;;;16.90;99.90;;;;;;6184201;23;20021;-70
2021/10/21 02:39:36;;;;;;;2.83;1.77;;;16.90;99.90;;;;;;6184001;23;20084;-70
2021/10/21 02:42:03;;;;;;;1.90;1.80;;;16.90;99.90;;;;;;6184169;23;20021;-70
2021/10/21 02:44:29;;;;;;;1.73;1.63;;;16.90;99.90;;;;;;6183635;23;20021;-71
2021/10/21 02:46:57;;;;;;;2.10;1.90;;;17.00;99.90;;;;;;6184022;23;20017;-69
2021/10/21 02:49:24;;;;;;;17.45;10.48;;;16.90;99.90;;;;;;6183911;23;20272;-70
2021/10/21 02:51:50;;;;;;;2.65;2.10;;;16.90;99.90;;;;;;6183719;23;20483;-70
2021/10/21 02:54:17;;;;;;;3.20;1.80;;;16.90;99.90;;;;;;6183320;23;20021;-70
2021/10/21 02:56:44;;;;;;;2.42;1.67;;;16.90;99.90;;;;;;6183451;23;20025;-70
2021/10/21 02:59:10;;;;;;;2.42;1.70;;;16.90;99.90;;;;;;6183937;23;20080;-70
2021/10/21 03:01:37;;;;;;;1.70;1.35;;;16.80;99.90;;;;;;6183959;23;20021;-72
2021/10/21 03:04:05;;;;;;;6.32;3.10;;;16.70;99.90;;;;;;6183428;23;20037;-72
2021/10/21 03:06:31;;;;;;;2.95;2.13;;;16.70;99.90;;;;;;6184053;23;20116;-73
2021/10/21 03:08:58;;;;;;;4.78;2.13;;;16.70;99.90;;;;;;6183985;23;20067;-72
2021/10/21 03:11:24;;;;;;;2.35;1.90;;;16.70;99.90;;;;;;6183539;23;20521;-71
2021/10/21 03:13:51;;;;;;;2.25;1.83;;;16.60;99.90;;;;;;6183401;23;20025;-70
2021/10/21 03:16:18;;;;;;;4.65;2.22;;;16.60;99.90;;;;;;6183955;23;20021;-70
2021/10/21 03:18:44;;;;;;;2.25;2.05;;;16.60;99.90;;;;;;6183715;23;20067;-70
2021/10/21 03:21:13;;;;;;;2.45;2.13;;;16.70;99.90;;;;;;6183911;23;20021;-70
2021/10/21 03:23:39;;;;;;;3.92;2.78;;;16.70;99.90;;;;;;6183291;23;20383;-70
2021/10/21 03:26:06;;;;;;;1.98;1.83;;;16.70;99.90;;;;;;6183868;23;20079;-70
2021/10/21 03:28:32;;;;;;;1.73;1.63;;;16.70;99.90;;;;;;6183907;23;20025;-71
2021/10/21 03:30:59;;;;;;;3.50;1.90;;;16.70;99.90;;;;;;6183858;23;20025;-70
2021/10/21 03:33:26;;;;;;;2.63;2.22;;;16.70;99.90;;;;;;6183257;23;20402;-69
2021/10/21 03:35:52;;;;;;;1.80;1.30;;;16.70;99.90;;;;;;6183863;23;20080;-70
2021/10/21 03:38:20;;;;;;;2.90;1.88;;;16.80;99.90;;;;;;6183755;23;20021;-70
2021/10/21 03:40:47;;;;;;;2.00;1.73;;;16.80;99.90;;;;;;6183855;23;20021;-71
2021/10/21 03:43:14;;;;;;;2.08;1.80;;;16.80;99.90;;;;;;6183212;23;20021;-70
2021/10/21 03:45:40;;;;;;;1.67;1.52;;;16.70;99.90;;;;;;6185450;23;20021;-74
2021/10/21 03:48:07;;;;;;;1.60;1.50;;;16.80;99.90;;;;;;6185701;23;20021;-73
2021/10/21 03:50:34;;;;;;;1.60;1.50;;;16.70;99.90;;;;;;6185681;23;20091;-74
2021/10/21 03:53:00;;;;;;;1.52;1.42;;;16.80;99.90;;;;;;6185723;23;20021;-76
2021/10/21 03:55:29;;;;;;;2.70;1.25;;;16.70;99.90;;;;;;6185322;23;20021;-74
2021/10/21 03:57:55;;;;;;;1.88;1.38;;;16.70;99.90;;;;;;6185643;23;20371;-74
2021/10/21 04:00:22;;;;;;;3.40;1.67;;;16.80;99.90;;;;;;6185030;23;20024;-74
2021/10/21 04:02:49;;;;;;;2.28;1.50;;;16.80;99.90;;;;;;6185569;23;20049;-72
2021/10/21 04:05:16;;;;;;;1.50;1.40;;;16.90;99.90;;;;;;6184977;23;20394;-71
2021/10/21 04:07:42;;;;;;;2.10;1.40;;;16.90;99.90;;;;;;6185038;23;20487;-69
2021/10/21 04:10:09;;;;;;;1.00;1.00;;;16.90;99.90;;;;;;6184986;23;20025;-70
2021/10/21 04:12:38;;;;;;;1.63;1.00;;;16.90;99.90;;;;;;6185523;23;20024;-71
2021/10/21 04:15:06;;;;;;;0.93;0.93;;;16.90;99.90;;;;;;6184907;23;20028;-71
2021/10/21 04:17:33;;;;;;;2.63;1.08;;;16.90;99.90;;;;;;6185495;23;20025;-72
2021/10/21 04:19:59;;;;;;;3.15;0.80;;;16.90;99.90;;;;;;6185242;23;20021;-71
2021/10/21 04:22:26;;;;;;;0.60;0.60;;;16.90;99.90;;;;;;6185268;23;20398;-74
2021/10/21 04:24:53;;;;;;;1.02;0.80;;;17.00;99.90;;;;;;6184793;23;20067;-73
2021/10/21 04:27:19;;;;;;;0.60;0.60;;;16.90;99.90;;;;;;6185237;23;20021;-74
2021/10/21 04:29:47;;;;;;;0.60;0.60;;;16.90;99.90;;;;;;6185139;23;20063;-75
2021/10/21 04:32:14;;;;;;;0.52;0.52;;;16.90;99.90;;;;;;6184989;23;20467;-72
2021/10/21 04:34:41;;;;;;;0.40;0.32;;;16.90;99.90;;;;;;6184642;23;20021;-71
2021/10/21 04:37:08;;;;;;;1.75;1.02;;;16.70;99.90;;;;;;6184908;23;20075;-70
2021/10/21 04:39:34;;;;;;;1.27;1.00;;;16.20;99.90;;;;;;6185170;23;20336;-70
2021/10/21 04:42:01;;;;;;;1.00;0.68;;;15.50;99.90;;;;;;6185138;23;20017;-74
2021/10/21 04:44:28;;;;;;;1.25;1.15;;;15.10;99.90;;;;;;6184463;23;20017;-69
2021/10/21 04:46:56;;;;;;;1.02;0.77;;;14.80;99.90;;;;;;6184837;23;20025;-73
2021/10/21 04:49:23;;;;;;;1.63;0.70;;;14.60;99.90;;;;;;6185223;23;20109;-71
2021/10/21 04:51:49;;;;;;;0.70;0.60;;;14.40;99.90;;;;;;6184694;23;20448;-71
2021/10/21 04:54:16;;;;;;;1.75;1.17;;;14.30;99.90;;;;;;6184605;23;20021;-71
2021/10/21 04:56:44;;;;;;;1.40;0.85;;;14.20;99.90;;;;;;6184973;23;20048;-71
2021/10/21 04:59:10;;;;;;;1.30;0.93;;;14.10;99.90;;;;;;6185934;23;20241;-72
2021/10/21 05:01:37;;;;;;;0.68;0.65;;;14.00;99.90;;;;;;6184576;23;20455;-72
2021/10/21 05:04:05;;;;;;;1.85;0.70;;;13.90;99.90;;;;;;6184357;23;20025;-71
2021/10/21 05:06:31;;;;;;;2.10;0.80;;;13.80;99.90;;;;;;6185241;23;20021;-72
2021/10/21 05:08:58;;;;;;;1.33;0.80;;;13.80;99.90;;;;;;6186202;23;20021;-73
2021/10/21 05:11:25;;;;;;;1.42;1.00;;;13.80;99.90;;;;;;6186052;23;20084;-72
2021/10/21 05:13:51;;;;;;;1.20;1.08;;;13.80;99.90;;;;;;6184272;23;20021;-73
2021/10/21 05:16:18;;;;;;;1.90;0.85;;;13.80;99.90;;;;;;6184772;23;20075;-72
2021/10/21 05:18:45;;;;;;;1.00;0.90;;;13.80;99.90;;;;;;6184230;23;20533;-71
2021/10/21 05:21:13;;;;;;;2.33;1.27;;;13.80;99.90;;;;;;6184767;23;20052;-73
2021/10/21 05:23:40;;;;;;;4.60;1.17;;;13.80;99.90;;;;;;6184172;23;20017;-72
2021/10/21 05:26:07;;;;;;;1.27;0.73;;;13.80;99.90;;;;;;6184667;23;20036;-68
2021/10/21 05:28:33;;;;;;;1.73;1.10;;;13.80;99.90;;;;;;6184519;23;20458;-71
2021/10/21 05:31:00;;;;;;;1.85;1.30;;;13.90;99.90;;;;;;6184528;23;20048;-71
2021/10/21 05:33:27;;;;;;;2.22;1.23;;;13.90;99.90;;;;;;6184074;23;20021;-71
2021/10/21 05:35:53;;;;;;;1.30;1.10;;;14.00;99.90;;;;;;6184332;23;20095;-70
2021/10/21 05:38:21;;;;;;;1.48;1.10;;;14.00;99.90;;;;;;6184621;23;20020;-73
2021/10/21 05:40:48;;;;;;;4.88;1.80;;;14.00;99.90;;;;;;6184621;23;20048;-73
2021/10/21 05:43:14;;;;;;;1.98;1.40;;;14.00;99.90;;;;;;6183915;23;20021;-72
2021/10/21 05:45:41;;;;;;;1.02;0.90;;;14.10;99.90;;;;;;6184456;23;20083;-72
2021/10/21 05:48:09;;;;;;;2.20;0.80;;;14.10;99.90;;;;;;6184321;23;20021;-73
2021/10/21 05:50:36;;;;;;;0.75;0.63;;;14.20;99.90;;;;;;6184593;23;20067;-75
2021/10/21 05:53:03;;;;;;;0.93;0.80;;;14.30;99.90;;;;;;6184191;23;20371;-72
2021/10/21 05:55:30;;;;;;;1.92;1.35;;;14.30;99.90;;;;;;6183969;23;20244;-71
2021/10/21 05:57:57;;;;;;;3.05;0.70;;;14.40;99.90;;;;;;6184480;23;20075;-75
2021/10/21 06:00:24;;;;;;;1.10;1.00;;;14.50;99.90;;;;;;6184344;23;20021;-71
2021/10/21 06:02:50;;;;;;;1.35;0.95;;;14.50;99.90;;;;;;6184432;23;20024;-74
2021/10/21 06:05:21;;;;;;;1.73;0.82;;;14.50;99.90;;;;;;6183851;23;20068;-69
2021/10/21 06:07:48;;;;;;;1.63;0.80;;;14.60;99.90;;;;;;6184158;23;20028;-75
2021/10/21 06:10:15;;;;;;;0.93;0.93;;;14.60;99.90;;;;;;6183775;23;20355;-75
2021/10/21 06:12:44;;;;;;;0.75;0.70;;;14.90;99.90;;;;;;6184283;23;20024;-73
2021/10/21 06:15:13;;;;;;;1.85;1.00;;;14.90;99.90;;;;;;6184072;23;20023;-73
2021/10/21 06:17:41;;;;;;;1.40;0.95;;;14.90;99.90;;;;;;6184701;23;20024;-70
2021/10/21 06:20:13;;;;;;;1.67;0.70;;;14.90;99.90;;;;;;6184450;23;20044;-73
2021/10/21 06:22:40;;;;;;;1.20;1.00;;;14.90;99.90;;;;;;6184489;23;20092;-71
2021/10/21 06:25:09;;;;;;;1.60;1.25;;;15.00;99.90;;;;;;6183640;23;20025;-71
2021/10/21 06:27:36;;;;;;;1.50;0.90;;;15.00;99.90;;;;;;6183839;23;20467;-72
2021/10/21 06:30:04;;;;;;;1.45;1.00;;;15.10;99.90;;;;;;6184061;23;20068;-72
2021/10/21 06:32:31;;;;;;;1.20;0.85;;;15.10;99.90;;;;;;6184850;23;20079;-71
2021/10/21 06:34:58;;;;;;;1.25;1.15;;;15.20;99.90;;;;;;6188825;23;20391;-74
2021/10/21 06:37:25;;;;;;;1.27;1.02;;;15.20;99.90;;;;;;6187115;23;20293;-74
2021/10/21 06:39:54;;;;;;;0.30;0.30;;;15.20;99.90;;;;;;6184578;23;20083;-74
2021/10/21 06:42:22;;;;;;;2.05;1.08;;;15.30;99.90;;;;;;6183786;23;20080;-73
2021/10/21 06:44:49;;;;;;;2.50;0.82;;;15.40;99.90;;;;;;6183584;23;20021;-71
2021/10/21 06:47:17;;;;;;;2.58;0.70;;;15.60;99.90;;;;;;6184850;23;20111;-71
2021/10/21 06:49:43;;;;;;;0.73;0.70;;;15.70;99.90;;;;;;6183909;23;20028;-76
2021/10/21 06:52:10;;;;;;;0.85;0.65;;;15.80;99.90;;;;;;6183917;23;20021;-74
2021/10/21 06:54:37;;;;;;;2.00;0.60;;;15.90;99.90;;;;;;6183574;23;20024;-71
2021/10/21 06:57:03;;;;;;;0.60;0.50;;;16.00;99.90;;;;;;6183980;23;20017;-76
2021/10/21 06:59:30;;;;;;;0.50;0.50;;;16.00;99.90;;;;;;6127733;23;20072;-74
2021/10/21 07:01:57;;;;;;;0.60;0.60;;;16.00;99.90;;;;;;6123454;23;20041;-75
2021/10/21 07:04:25;;;;;;;0.65;0.50;;;16.10;99.90;;;;;;6124202;23;20022;-73
2021/10/21 07:06:51;;;;;;;4.85;0.65;;;16.10;99.90;;;;;;6124234;23;20088;-75
2021/10/21 07:09:18;;;;;;;0.52;0.50;;;16.10;99.90;;;;;;6124239;23;20073;-75
2021/10/21 07:11:45;;;;;;;4.72;1.00;;;16.10;99.90;;;;;;6124569;23;20026;-76
2021/10/21 07:14:11;;;;;;;1.58;0.98;;;16.10;99.90;;;;;;6124150;23;20022;-76
2021/10/21 07:16:38;;;;;;;10.30;0.88;;;16.10;99.90;;;;;;6124458;23;20026;-70
2021/10/21 07:19:05;;;;;;;1.40;0.50;;;16.00;99.90;;;;;;6125337;23;20022;-70
2021/10/21 07:21:33;;;;;;;2.20;0.47;;;16.00;99.90;;;;;;6126631;23;20029;-71
2021/10/21 07:24:00;;;;;;;0.70;0.40;;;15.90;99.90;;;;;;6126079;23;20077;-75
2021/10/21 07:26:26;;;;;;;0.35;0.35;;;15.80;99.90;;;;;;6126504;23;20080;-74
2021/10/21 07:28:53;;;;;;;1.95;0.40;;;15.80;99.90;;;;;;6126537;23;20338;-72
2021/10/21 07:31:21;;;;;;;2.78;0.95;;;15.60;99.90;;;;;;6126554;23;20108;-72
2021/10/21 07:33:48;;;;;;;2.63;0.60;;;15.60;99.90;;;;;;6125875;23;20081;-74
2021/10/21 07:36:15;;;;;;;2.08;0.60;;;15.50;99.90;;;;;;6126458;23;20022;-73
2021/10/21 07:38:42;;;;;;;10.32;1.10;;;15.40;99.90;;;;;;6126369;23;20018;-72
2021/10/21 07:41:09;;;;;;;2.92;0.52;;;15.50;99.90;;;;;;6126362;23;20022;-73
2021/10/21 07:43:37;;;;;;;2.35;0.47;;;15.50;99.90;;;;;;6126060;23;20022;-73
2021/10/21 07:46:04;;;;;;;2.30;0.57;;;15.60;99.90;;;;;;6126571;23;20076;-70
2021/10/21 07:48:31;;;;;;;1.88;0.20;;;15.60;99.90;;;;;;6126314;23;20022;-71
2021/10/21 07:50:58;;;;;;;3.65;1.27;;;16.20;99.90;;;;;;6125881;23;20471;-69
2021/10/21 07:53:26;;;;;;;8.82;1.70;;;16.60;99.90;;;;;;6125752;23;20330;-69
2021/10/21 07:55:54;;;;;;;7.68;0.40;;;16.90;99.90;;;;;;6125794;23;20022;-71
2021/10/21 07:58:21;;;;;;;2.22;0.40;;;17.30;99.90;;;;;;6125825;23;20524;-69
2021/10/21 08:00:47;;;;;;;0.63;0.20;;;17.60;98.00;;;;;;6126263;23;20022;-70
2021/10/21 08:03:14;;;;;;;2.75;0.50;;;17.50;96.90;;;;;;6125630;23;20018;-70
2021/10/21 08:05:41;;;;;;;1.13;0.30;;;17.60;96.40;;;;;;6126297;23;20021;-71
2021/10/21 08:08:08;;;;;;;2.00;0.30;;;17.90;96.40;;;;;;6125999;23;20053;-71
2021/10/21 08:10:35;;;;;;;1.60;0.30;;;18.30;94.50;;;;;;6125857;23;20456;-70
2021/10/21 08:13:03;;;;;;;1.23;0.30;;;17.90;94.90;;;;;;6126380;23;20021;-69
2021/10/21 08:15:30;;;;;;;2.35;0.55;;;17.90;94.10;;;;;;6126050;23;20041;-69
2021/10/21 08:17:57;;;;;;;0.55;0.43;;;17.80;94.40;;;;;;6126298;23;20073;-69
2021/10/21 08:20:26;;;;;;;0.50;0.50;;;17.60;94.50;;;;;;6125931;23;20025;-70
2021/10/21 08:22:53;;;;;;;1.65;0.30;;;17.20;95.00;;;;;;6125867;23;20022;-69
2021/10/21 08:25:20;;;;;;;0.63;0.20;;;17.40;94.80;;;;;;6125389;23;20080;-76
2021/10/21 08:27:47;;;;;;;1.80;0.28;;;17.70;94.60;;;;;;6125860;23;20034;-72
2021/10/21 08:30:19;;;;;;;0.88;0.45;;;17.50;95.00;;;;;;6125653;23;20022;-71
2021/10/21 08:32:45;;;;;;;;;;;17.20;95.10;;;;;;6126067;23;20487;-72
2021/10/21 08:35:15;;;;;;;0.20;0.20;;;16.80;95.80;;;;;;6125472;23;19917;-71
2021/10/21 08:37:41;;;;;;;1.38;0.43;;;16.40;96.50;;;;;;6125789;23;20096;-72
2021/10/21 08:40:09;;;;;;;2.53;1.17;;;16.30;98.00;;;;;;6125852;23;20092;-71
2021/10/21 08:42:36;;;;;;;1.40;0.75;;;16.20;97.90;;;;;;6125856;23;20022;-71
2021/10/21 08:45:03;;;;;;;2.70;0.40;;;16.10;98.10;;;;;;6125306;23;20022;-73
2021/10/21 08:47:33;;;;;;;1.60;0.57;;;16.00;99.10;;;;;;6125448;23;20022;-73
2021/10/21 08:50:00;;;;;;;2.53;0.82;;;15.80;99.60;;;;;;6125931;23;20080;-75
2021/10/21 08:52:27;;;;;;;2.17;0.30;;;15.70;99.80;;;;;;6125754;23;20025;-70
2021/10/21 08:54:55;;;;;;;0.20;0.20;;;15.70;99.90;;;;;;6125355;23;20077;-72
2021/10/21 08:57:22;;;;;;;2.05;0.60;;;15.60;99.90;;;;;;6125885;23;20048;-73
2021/10/21 08:59:49;;;;;;;0.20;0.10;;;15.60;99.90;;;;;;6125315;23;20527;-73
2021/10/21 09:02:19;;;;;;;4.22;0.35;;;15.50;99.90;;;;;;6125787;23;20061;-73
2021/10/21 09:04:57;;;;;;;3.35;1.27;;;15.50;99.90;;;;;;6124610;23;20018;-73
2021/10/21 09:10:11;;;;;;;1.65;0.35;;;15.40;99.90;;;;;;6125086;23;20080;-73
2021/10/21 09:12:43;;;;;;;2.53;0.77;;;15.40;99.90;;;;;;6125586;23;20030;-74
2021/10/21 09:15:14;;;;;;;2.13;0.77;;;15.50;99.90;;;;;;6125037;23;20049;-73
2021/10/21 09:17:41;;;;;;;3.97;0.30;;;15.50;99.90;;;;;;6125499;23;20027;-74
2021/10/21 09:20:30;;;;;;;13.07;1.20;;;15.60;99.90;;;;;;6125393;23;20101;-74
2021/10/21 09:22:58;;;;;;;1.85;0.30;;;15.50;99.90;;;;;;6125216;23;20492;-73
2021/10/21 09:25:28;;;;;;;10.30;0.93;;;15.40;99.90;;;;;;6124963;23;20084;-72
2021/10/21 09:27:56;;;;;;;3.22;0.95;;;15.40;99.90;;;;;;6125401;23;20025;-72
2021/10/21 09:30:27;;;;;;;4.38;0.38;;;15.40;99.90;;;;;;6125268;23;20024;-72
2021/10/21 09:32:54;;;;;;;6.75;1.25;;;15.40;99.90;;;;;;6125402;23;20069;-73
2021/10/21 09:35:23;;;;;;;2.72;0.50;;;15.40;99.90;;;;;;6124824;23;20029;-73
2021/10/21 09:37:55;;;;;;;4.07;0.30;;;15.40;99.90;;;;;;6125808;23;20022;-74
2021/10/21 09:40:26;;;;;;;0.32;0.10;;;15.40;99.90;;;;;;6125269;23;20029;-73
2021/10/21 09:42:58;;;;;;;2.22;0.30;;;15.40;99.90;;;;;;6124927;23;20392;-74
2021/10/21 09:45:27;;;;;;;0.77;0.20;;;15.40;99.90;;;;;;6124817;23;20097;-74
2021/10/21 09:47:56;;;;;;;2.58;0.25;;;15.40;99.90;;;;;;6125139;23;20024;-74
2021/10/21 09:50:27;;;;;;;1.42;0.38;;;15.30;99.90;;;;;;6125227;23;20022;-76
2021/10/21 09:53:10;;;;;;;1.73;1.00;;;15.30;99.90;;;;;;6124793;23;20479;-71
2021/10/21 09:55:38;;;;;;;1.13;0.22;;;15.30;99.90;;;;;;6125127;23;20018;-72
2021/10/21 09:58:07;;;;;;;4.20;0.50;;;15.30;99.90;;;;;;6124868;23;20492;-71
2021/10/21 10:00:35;;;;;;;1.85;0.50;;;15.20;99.90;;;;;;6125241;23;20328;-70
2021/10/21 10:03:13;;;;;;;2.17;0.50;;;15.30;99.90;;;;;;6125050;23;20018;-71
2021/10/21 10:05:41;;;;;;;2.75;0.50;;;15.30;99.90;;;;;;6124791;23;20468;-72
2021/10/21 10:08:09;;;;;;;3.83;0.60;;;15.30;99.90;;;;;;6124932;23;20286;-71
2021/10/21 10:10:41;;;;;;;5.78;0.40;;;15.20;99.90;;;;;;6125137;23;20028;-71
2021/10/21 10:13:09;;;;;;;1.08;0.38;;;15.30;99.90;;;;;;6124417;23;20049;-71
2021/10/21 10:15:38;;;;;;;0.65;0.40;;;15.30;99.90;;;;;;6125014;23;20022;-72
2021/10/21 10:18:07;;;;;;;11.38;0.98;;;15.30;99.90;;;;;;6125172;23;20021;-73
2021/10/21 10:20:34;;;;;;;3.55;0.45;;;15.30;99.90;;;;;;6125137;23;20022;-74
2021/10/21 10:23:04;;;;;;;0.20;0.20;;;15.30;99.90;;;;;;6124801;23;20452;-73
2021/10/21 10:25:44;;;;;;;1.02;0.30;;;15.40;99.90;;;;;;6124317;23;20500;-73
2021/10/21 10:28:10;;;;;;;2.65;1.17;;;15.50;99.90;;;;;;6124876;23;20021;-75
2021/10/21 10:30:45;;;;;;;1.63;0.28;;;15.80;99.90;;;;;;6124645;23;20464;-73
2021/10/21 10:33:12;;;;;;;2.78;0.70;;;16.00;99.90;;;;;;6124340;23;20029;-74
2021/10/21 10:35:41;;;;;;;2.80;0.22;;;15.90;99.90;;;;;;6125008;23;20033;-74
2021/10/21 10:38:09;;;;;;;3.17;0.63;;;15.80;99.90;;;;;;6124996;23;20318;-74
2021/10/21 10:40:40;;;;;;;8.20;0.57;;;15.70;99.90;;;;;;6129008;23;20069;-73
2021/10/21 10:43:07;;;;;;;4.15;0.52;;;15.60;99.90;;;;;;6124705;23;20076;-73
2021/10/21 10:45:48;;;;;;;2.10;0.55;;;15.50;99.90;;;;;;6124370;23;20356;-75
2021/10/21 10:48:16;;;;;;;12.88;0.68;;;15.50;99.90;;;;;;6125240;23;20092;-71
2021/10/21 10:50:54;;;;;;;4.75;0.52;;;15.40;99.90;;;;;;6124692;23;20077;-70
2021/10/21 10:53:42;;;;;;;3.92;1.17;;;15.30;99.90;;;;;;6123629;23;20022;-72
2021/10/21 10:56:30;;;;;;;3.60;0.40;;;15.30;99.90;;;;;;6124519;23;20465;-71
2021/10/21 10:59:22;;;;;;;0.30;0.30;;;15.20;99.90;;;;;;6124172;23;20456;-72
2021/10/21 11:01:50;;;;;;;5.18;0.45;;;15.10;99.90;;;;;;6124815;23;20032;-71
2021/10/21 11:04:54;;;;;;;0.45;0.15;;;15.00;99.90;;;;;;6123944;23;20461;-71
2021/10/21 11:07:22;;;;;;;0.13;0.10;;;14.90;99.90;;;;;;6124719;23;20029;-71
2021/10/21 11:09:50;;;;;;;1.25;0.60;;;14.70;99.90;;;;;;6124762;23;20028;-72
2021/10/21 11:12:20;;;;;;;1.48;0.10;;;14.60;99.90;;;;;;6124646;23;20022;-72
2021/10/21 11:14:53;;;;;;;1.60;0.57;;;14.20;99.90;;;;;;6123919;23;20026;-73
2021/10/21 11:17:41;;;;;;;3.35;1.00;;;13.50;99.90;;;;;;6125300;23;20022;-73
2021/10/21 11:20:23;;;;;;;2.67;0.50;;;13.10;99.90;;;;;;6125111;23;20092;-72
2021/10/21 11:22:50;;;;;;;0.77;0.15;;;13.00;99.90;;;;;;6124135;23;20076;-73
2021/10/21 11:25:17;;;;;;;0.35;0.20;;;13.00;99.90;;;;;;6124133;23;20021;-75
2021/10/21 11:27:46;;;;;;;0.40;0.22;;;12.90;99.90;;;;;;6124703;23;20026;-73
2021/10/21 11:30:17;;;;;;;0.47;0.22;;;12.90;99.90;;;;;;6124251;23;20364;-75
2021/10/21 11:32:44;;;;;;;1.13;0.10;;;13.00;99.90;;;;;;6124693;23;20049;-71
2021/10/21 11:35:14;;;;;;;1.50;0.20;;;13.10;99.90;;;;;;6124008;23;20022;-71
2021/10/21 11:37:45;;;;;;;0.10;0.10;;;13.20;99.90;;;;;;6124617;23;20022;-71
2021/10/21 11:40:16;;;;;;;0.25;0.10;;;13.20;99.90;;;;;;6124741;23;20314;-72
2021/10/21 11:42:51;;;;;;;5.93;0.30;;;13.20;99.90;;;;;;6124289;23;20487;-71
2021/10/21 11:45:19;;;;;;;0.95;0.10;;;13.20;99.90;;;;;;6124241;23;20257;-73
2021/10/21 11:47:47;;;;;;;0.00;0.00;;;13.00;99.90;;;;;;6124691;23;20366;-74
2021/10/21 11:50:14;;;;;;;0.90;0.40;;;13.10;99.90;;;;;;6124179;23;20018;-74
2021/10/21 11:52:42;;;;;;;0.52;0.30;;;12.90;99.90;;;;;;6124187;23;20460;-72
2021/10/21 11:55:19;;;;;;;0.28;0.17;;;12.80;99.90;;;;;;6123986;23;20050;-74
2021/10/21 11:57:46;;;;;;;0.35;0.13;;;12.70;99.90;;;;;;6124650;23;20092;-71
2021/10/21 12:00:20;;;;;;;0.30;0.30;;;12.70;99.90;;;;;;6124088;23;20472;-73
2021/10/21 12:02:50;;;;;;;0.20;0.20;;;13.00;99.90;;;;;;6124579;23;20022;-73
2021/10/21 12:05:17;;;;;;;0.20;0.20;;;13.10;99.90;;;;;;6124559;23;20084;-74
2021/10/21 12:07:44;;;;;;;0.25;0.25;;;13.20;99.90;;;;;;6126314;23;20076;-73
2021/10/21 12:10:27;;;;;;;0.20;0.20;;;13.30;99.90;;;;;;6125838;23;20400;-74
2021/10/21 12:12:55;;;;;;;1.42;0.40;;;13.50;99.90;;;;;;6126171;23;20330;-73
2021/10/21 12:15:25;;;;;;;0.00;0.00;;;13.80;99.90;;;;;;6125281;23;20564;-70
2021/10/21 12:17:52;;;;;;;2.78;0.45;;;14.00;99.90;;;;;;6126135;23;20022;-71
2021/10/21 12:20:38;;;;;;;0.25;0.25;;;13.70;99.90;;;;;;6126070;23;20026;-71
2021/10/21 12:23:22;;;;;;;1.05;0.40;;;13.30;99.90;;;;;;6125031;23;20026;-69
2021/10/21 12:25:50;;;;;;;0.75;0.30;;;13.30;99.90;;;;;;6125841;23;20026;-72
2021/10/21 12:28:17;;;;;;;0.32;0.20;;;13.60;99.90;;;;;;6126048;23;20022;-73
2021/10/21 12:30:46;;;;;;;1.50;0.52;;;13.50;99.90;;;;;;6126044;23;20029;-73
2021/10/21 12:33:14;;;;;;;2.38;0.63;;;13.40;99.90;;;;;;6125056;23;20472;-75
2021/10/21 12:36:00;;;;;;;2.38;0.65;;;13.20;99.90;;;;;;6129472;23;20092;-75
2021/10/21 12:38:27;;;;;;;2.72;0.60;;;13.20;99.90;;;;;;6125948;23;20022;-73
2021/10/21 12:41:04;;;;;;;2.42;1.17;;;13.20;99.90;;;;;;6126004;23;20018;-73
2021/10/21 12:43:31;;;;;;;0.65;0.38;;;13.10;99.90;;;;;;6125319;23;20022;-71
2021/10/21 12:46:01;;;;;;;1.08;0.88;;;13.10;99.90;;;;;;6125527;23;20519;-71
2021/10/21 12:48:30;;;;;;;1.55;0.65;;;13.10;99.90;;;;;;6125530;23;20033;-71
2021/10/21 12:51:08;;;;;;;0.75;0.52;;;13.00;99.90;;;;;;6125440;23;20475;-71
2021/10/21 12:53:35;;;;;;;0.30;0.30;;;13.00;99.90;;;;;;6125220;23;20026;-71
2021/10/21 12:56:14;;;;;;;1.67;0.45;;;13.00;99.90;;;;;;6125392;23;20022;-71
2021/10/21 12:58:40;;;;;;;0.43;0.43;;;13.00;99.90;;;;;;6125594;23;20022;-71